createdAt,value
2018-02-23T00:01:04.577Z,0
2018-02-23T00:02:13.797Z,0
2018-02-23T00:03:22.790Z,0
2018-02-23T00:04:31.489Z,0
2018-02-23T00:05:40.696Z,0
2018-02-23T00:06:50.168Z,0
2018-02-23T00:07:58.854Z,0
2018-02-23T00:09:07.878Z,0
2018-02-23T00:10:17.111Z,0
2018-02-23T00:11:26.312Z,0
2018-02-23T00:12:35.028Z,0
2018-02-23T00:13:43.984Z,0
2018-02-23T00:14:53.220Z,0
2018-02-23T00:16:02.172Z,0
2018-02-23T00:17:11.215Z,0
2018-02-23T00:18:20.160Z,0
2018-02-23T00:19:29.628Z,0
2018-02-23T00:20:38.589Z,0
2018-02-23T00:21:47.307Z,0
2018-02-23T00:22:56.619Z,0
2018-02-23T00:24:05.805Z,0
2018-02-23T00:25:14.799Z,0
2018-02-23T00:26:23.900Z,0
2018-02-23T00:27:32.886Z,0
2018-02-23T00:28:42.104Z,0
2018-02-23T00:29:51.304Z,0
2018-02-23T00:31:00.653Z,0
2018-02-23T00:32:09.383Z,0
2018-02-23T00:33:18.462Z,0
2018-02-23T00:34:27.400Z,0
2018-02-23T00:35:36.624Z,0
2018-02-23T00:36:45.842Z,0
2018-02-23T00:37:55.382Z,0
2018-02-23T00:39:04.597Z,0
2018-02-23T00:40:13.555Z,0
2018-02-23T00:41:22.773Z,0
2018-02-23T00:42:31.984Z,0
2018-02-23T00:43:41.190Z,0
2018-02-23T00:44:50.406Z,0
2018-02-23T00:45:59.607Z,0
2018-02-23T00:47:08.542Z,0
2018-02-23T00:48:17.754Z,0
2018-02-23T00:49:26.700Z,0
2018-02-23T00:50:35.909Z,0
2018-02-23T00:51:44.874Z,0
2018-02-23T00:52:54.091Z,0
2018-02-23T00:54:03.037Z,0
2018-02-23T00:55:12.265Z,0
2018-02-23T00:56:20.961Z,0
2018-02-23T00:57:29.892Z,0
2018-02-23T00:58:39.109Z,0
2018-02-23T00:59:47.791Z,0
2018-02-23T01:00:56.752Z,0
2018-02-23T01:02:05.978Z,0
2018-02-23T01:03:14.915Z,0
2018-02-23T01:04:23.882Z,0
2018-02-23T01:05:33.438Z,0
2018-02-23T01:06:42.922Z,0
2018-02-23T01:07:52.122Z,0
2018-02-23T01:09:01.362Z,0
2018-02-23T01:10:10.574Z,0
2018-02-23T01:11:19.525Z,0
2018-02-23T01:12:28.554Z,0
2018-02-23T01:13:37.776Z,0
2018-02-23T01:14:46.989Z,0
2018-02-23T01:15:56.204Z,0
2018-02-23T01:17:05.178Z,0
2018-02-23T01:18:13.863Z,0
2018-02-23T01:19:22.558Z,0
2018-02-23T01:20:31.819Z,0
2018-02-23T01:21:41.045Z,0
2018-02-23T01:22:50.270Z,0
2018-02-23T01:23:59.489Z,0
2018-02-23T01:25:08.987Z,0
2018-02-23T01:26:18.200Z,0
2018-02-23T01:27:27.427Z,0
2018-02-23T01:28:36.377Z,0
2018-02-23T01:29:45.331Z,0
2018-02-23T01:30:54.542Z,0
2018-02-23T01:32:03.246Z,0
2018-02-23T01:33:12.456Z,0
2018-02-23T01:34:21.933Z,0
2018-02-23T01:35:30.890Z,0
2018-02-23T01:36:39.901Z,0
2018-02-23T01:37:48.597Z,0
2018-02-23T01:38:57.818Z,0
2018-02-23T01:40:07.024Z,0
2018-02-23T01:41:15.709Z,0
2018-02-23T01:42:24.921Z,0
2018-02-23T01:43:33.596Z,0
2018-02-23T01:44:42.560Z,0
2018-02-23T01:45:51.763Z,0
2018-02-23T01:47:00.715Z,0
2018-02-23T01:48:10.470Z,0
2018-02-23T01:49:19.165Z,0
2018-02-23T01:50:28.133Z,0
2018-02-23T01:51:37.338Z,0
2018-02-23T01:52:46.822Z,0
2018-02-23T01:53:55.781Z,0
2018-02-23T01:55:05.266Z,0
2018-02-23T01:56:14.479Z,0
2018-02-23T01:57:23.966Z,0
2018-02-23T01:58:33.447Z,0
2018-02-23T01:59:43.183Z,0
2018-02-23T02:00:52.651Z,0
2018-02-23T02:02:01.866Z,0
2018-02-23T02:03:10.567Z,0
2018-02-23T02:04:19.561Z,0
2018-02-23T02:05:28.529Z,0
2018-02-23T02:06:37.792Z,0
2018-02-23T02:07:47.279Z,0
2018-02-23T02:08:56.493Z,0
2018-02-23T02:10:05.979Z,0
2018-02-23T02:11:14.924Z,0
2018-02-23T02:12:24.120Z,0
2018-02-23T02:13:33.343Z,0
2018-02-23T02:14:42.564Z,0
2018-02-23T02:15:51.263Z,0
2018-02-23T02:16:59.955Z,0
2018-02-23T02:18:08.902Z,0
2018-02-23T02:19:18.633Z,0
2018-02-23T02:20:27.628Z,0
2018-02-23T02:21:36.325Z,0
2018-02-23T02:22:45.269Z,0
2018-02-23T02:23:54.859Z,0
2018-02-23T02:25:04.087Z,0
2018-02-23T02:26:13.280Z,0
2018-02-23T02:27:22.219Z,0
2018-02-23T02:28:31.439Z,0
2018-02-23T02:29:40.661Z,0
2018-02-23T02:30:49.890Z,0
2018-02-23T02:31:59.647Z,0
2018-02-23T02:33:08.858Z,0
2018-02-23T02:34:18.525Z,0
2018-02-23T02:35:27.464Z,0
2018-02-23T02:36:36.698Z,0
2018-02-23T02:37:45.958Z,0
2018-02-23T02:38:55.187Z,0
2018-02-23T02:40:04.400Z,0
2018-02-23T02:41:13.874Z,0
2018-02-23T02:42:23.375Z,0
2018-02-23T02:43:32.052Z,0
2018-02-23T02:44:41.273Z,0
2018-02-23T02:45:51.014Z,0
2018-02-23T02:47:00.233Z,0
2018-02-23T02:48:09.197Z,0
2018-02-23T02:49:18.413Z,0
2018-02-23T02:50:27.636Z,0
2018-02-23T02:51:37.105Z,0
2018-02-23T02:52:46.377Z,0
2018-02-23T02:53:56.147Z,0
2018-02-23T02:55:05.381Z,0
2018-02-23T02:56:14.864Z,0
2018-02-23T02:57:23.860Z,0
2018-02-23T02:58:33.069Z,0
2018-02-23T02:59:42.026Z,0
2018-02-23T03:00:51.523Z,0
2018-02-23T03:02:00.774Z,0
2018-02-23T03:03:10.509Z,0
2018-02-23T03:04:19.465Z,0
2018-02-23T03:05:28.659Z,0
2018-02-23T03:06:37.605Z,0
2018-02-23T03:07:46.286Z,0
2018-02-23T03:08:55.250Z,0
2018-02-23T03:10:04.466Z,0
2018-02-23T03:11:13.922Z,0
2018-02-23T03:12:22.936Z,0
2018-02-23T03:13:32.154Z,0
2018-02-23T03:14:40.856Z,0
2018-02-23T03:15:49.823Z,0
2018-02-23T03:16:58.779Z,0
2018-02-23T03:18:08.047Z,0
2018-02-23T03:19:17.279Z,0
2018-02-23T03:20:26.232Z,0
2018-02-23T03:21:35.424Z,0
2018-02-23T03:22:44.382Z,0
2018-02-23T03:23:53.650Z,0
2018-02-23T03:25:02.361Z,0
2018-02-23T03:26:11.044Z,0
2018-02-23T03:27:19.740Z,0
2018-02-23T03:28:28.508Z,0
2018-02-23T03:29:37.228Z,0
2018-02-23T03:30:46.211Z,0
2018-02-23T03:31:55.168Z,0
2018-02-23T03:33:03.871Z,0
2018-02-23T03:34:12.839Z,0
2018-02-23T03:35:21.783Z,0
2018-02-23T03:36:30.737Z,0
2018-02-23T03:37:39.433Z,0
2018-02-23T03:38:48.379Z,0
2018-02-23T03:39:57.393Z,0
2018-02-23T03:41:06.097Z,0
2018-02-23T03:42:15.379Z,0
2018-02-23T03:43:24.613Z,0
2018-02-23T03:44:34.103Z,0
2018-02-23T03:45:43.318Z,0
2018-02-23T03:46:52.525Z,0
2018-02-23T03:48:01.797Z,0
2018-02-23T03:49:10.477Z,0
2018-02-23T03:50:19.430Z,0
2018-02-23T03:51:28.428Z,0
2018-02-23T03:52:37.116Z,0
2018-02-23T03:53:46.862Z,0
2018-02-23T03:54:56.767Z,0
2018-02-23T03:56:05.729Z,0
2018-02-23T03:57:15.252Z,0
2018-02-23T03:58:24.216Z,0
2018-02-23T03:59:33.958Z,0
2018-02-23T04:00:42.657Z,0
2018-02-23T04:01:51.598Z,0
2018-02-23T04:03:01.074Z,0
2018-02-23T04:04:09.815Z,0
2018-02-23T04:05:18.494Z,0
2018-02-23T04:06:27.438Z,0
2018-02-23T04:07:36.663Z,0
2018-02-23T04:08:45.361Z,0
2018-02-23T04:09:54.875Z,0
2018-02-23T04:11:03.561Z,0
2018-02-23T04:12:12.254Z,0
2018-02-23T04:13:20.943Z,0
2018-02-23T04:14:29.650Z,0
2018-02-23T04:15:38.888Z,0
2018-02-23T04:16:47.583Z,0
2018-02-23T04:17:56.776Z,0
2018-02-23T04:19:05.733Z,0
2018-02-23T04:20:14.761Z,0
2018-02-23T04:21:23.713Z,0
2018-02-23T04:22:32.948Z,0
2018-02-23T04:23:42.481Z,0
2018-02-23T04:24:51.430Z,0
2018-02-23T04:26:00.631Z,0
2018-02-23T04:27:09.845Z,0
2018-02-23T04:28:18.787Z,0
2018-02-23T04:29:28.039Z,0
2018-02-23T04:30:37.029Z,0
2018-02-23T04:31:46.007Z,0
2018-02-23T04:32:54.683Z,0
2018-02-23T04:34:03.367Z,0
2018-02-23T04:35:12.643Z,0
2018-02-23T04:36:21.655Z,0
2018-02-23T04:37:30.609Z,0
2018-02-23T04:38:39.868Z,0
2018-02-23T04:39:48.823Z,0
2018-02-23T04:40:57.785Z,0
2018-02-23T04:42:06.745Z,0
2018-02-23T04:43:15.966Z,0
2018-02-23T04:44:24.635Z,0
2018-02-23T04:45:34.154Z,0
2018-02-23T04:46:43.371Z,0
2018-02-23T04:47:52.406Z,0
2018-02-23T04:49:01.942Z,0
2018-02-23T04:50:10.912Z,0
2018-02-23T04:51:19.918Z,0
2018-02-23T04:52:28.868Z,0
2018-02-23T04:53:37.818Z,0
2018-02-23T04:54:46.772Z,0
2018-02-23T04:55:56.090Z,0
2018-02-23T04:57:05.007Z,0
2018-02-23T04:58:13.741Z,0
2018-02-23T04:59:22.693Z,0
2018-02-23T05:00:31.673Z,0
2018-02-23T05:01:40.370Z,0
2018-02-23T05:02:49.583Z,0
2018-02-23T05:03:58.805Z,0
2018-02-23T05:05:08.309Z,0
2018-02-23T05:06:17.522Z,0
2018-02-23T05:07:26.469Z,0
2018-02-23T05:08:35.741Z,0
2018-02-23T05:09:44.957Z,0
2018-02-23T05:10:54.202Z,0
2018-02-23T05:12:03.454Z,0
2018-02-23T05:13:12.676Z,0
2018-02-23T05:14:21.629Z,0
2018-02-23T05:15:30.894Z,0
2018-02-23T05:16:40.269Z,0
2018-02-23T05:17:48.981Z,0
2018-02-23T05:18:58.727Z,0
2018-02-23T05:20:07.441Z,0
2018-02-23T05:21:16.143Z,0
2018-02-23T05:22:25.353Z,0
2018-02-23T05:23:34.623Z,0
2018-02-23T05:24:43.446Z,0
2018-02-23T05:25:52.452Z,0
2018-02-23T05:27:01.662Z,0
2018-02-23T05:28:11.416Z,0
2018-02-23T05:29:20.648Z,0
2018-02-23T05:30:29.594Z,0
2018-02-23T05:31:38.284Z,0
2018-02-23T05:32:47.240Z,0
2018-02-23T05:33:56.471Z,0
2018-02-23T05:35:05.760Z,0
2018-02-23T05:36:14.705Z,0
2018-02-23T05:37:23.413Z,0
2018-02-23T05:38:32.636Z,0
2018-02-23T05:39:41.355Z,0
2018-02-23T05:40:50.575Z,0
2018-02-23T05:41:59.815Z,0
2018-02-23T05:43:08.499Z,0
2018-02-23T05:44:17.458Z,0
2018-02-23T05:45:26.686Z,0
2018-02-23T05:46:36.155Z,0
2018-02-23T05:47:45.104Z,0
2018-02-23T05:48:54.046Z,0
2018-02-23T05:50:03.296Z,0
2018-02-23T05:51:12.276Z,0
2018-02-23T05:52:21.006Z,0
2018-02-23T05:53:29.694Z,0
2018-02-23T05:54:38.646Z,0
2018-02-23T05:55:47.588Z,0
2018-02-23T05:56:56.278Z,0
2018-02-23T05:58:05.492Z,0
2018-02-23T05:59:15.057Z,0
2018-02-23T06:00:24.275Z,0
2018-02-23T06:01:33.285Z,0
2018-02-23T06:02:42.241Z,0
2018-02-23T06:03:50.940Z,4
2018-02-23T06:05:00.420Z,0
2018-02-23T06:06:09.362Z,4
2018-02-23T06:07:18.589Z,4
2018-02-23T06:08:27.812Z,4
2018-02-23T06:09:37.278Z,8
2018-02-23T06:10:45.969Z,4
2018-02-23T06:11:55.188Z,4
2018-02-23T06:13:04.408Z,8
2018-02-23T06:14:13.365Z,12
2018-02-23T06:15:22.579Z,12
2018-02-23T06:16:31.518Z,12
2018-02-23T06:17:40.981Z,16
2018-02-23T06:18:49.653Z,20
2018-02-23T06:19:58.346Z,24
2018-02-23T06:21:07.303Z,24
2018-02-23T06:22:15.999Z,28
2018-02-23T06:23:24.704Z,32
2018-02-23T06:24:33.663Z,36
2018-02-23T06:25:42.339Z,44
2018-02-23T06:26:51.280Z,48
2018-02-23T06:28:00.488Z,52
2018-02-23T06:29:09.702Z,60
2018-02-23T06:30:18.927Z,68
2018-02-23T06:31:27.864Z,72
2018-02-23T06:32:36.539Z,80
2018-02-23T06:33:45.745Z,88
2018-02-23T06:34:55.314Z,96
2018-02-23T06:36:04.053Z,108
2018-02-23T06:37:13.543Z,120
2018-02-23T06:38:22.765Z,128
2018-02-23T06:39:31.971Z,140
2018-02-23T06:40:41.188Z,152
2018-02-23T06:41:50.142Z,164
2018-02-23T06:42:59.153Z,180
2018-02-23T06:44:08.122Z,196
2018-02-23T06:45:17.081Z,208
2018-02-23T06:46:26.293Z,224
2018-02-23T06:47:35.553Z,236
2018-02-23T06:48:45.316Z,248
2018-02-23T06:49:54.862Z,260
2018-02-23T06:51:03.812Z,276
2018-02-23T06:52:13.285Z,284
2018-02-23T06:53:22.513Z,296
2018-02-23T06:54:31.747Z,312
2018-02-23T06:55:40.986Z,324
2018-02-23T06:56:49.931Z,336
2018-02-23T06:57:59.148Z,352
2018-02-23T06:59:08.108Z,368
2018-02-23T07:00:17.473Z,380
2018-02-23T07:01:26.657Z,392
2018-02-23T07:02:35.329Z,408
2018-02-23T07:03:44.575Z,416
2018-02-23T07:04:53.577Z,428
2018-02-23T07:06:02.737Z,440
2018-02-23T07:07:11.811Z,456
2018-02-23T07:08:20.806Z,460
2018-02-23T07:09:29.542Z,472
2018-02-23T07:10:39.020Z,480
2018-02-23T07:11:48.011Z,484
2018-02-23T07:12:57.525Z,496
2018-02-23T07:14:06.484Z,508
2018-02-23T07:15:15.736Z,516
2018-02-23T07:16:24.703Z,532
2018-02-23T07:17:33.651Z,544
2018-02-23T07:18:42.621Z,556
2018-02-23T07:19:51.558Z,568
2018-02-23T07:21:00.269Z,580
2018-02-23T07:22:09.509Z,588
2018-02-23T07:23:18.275Z,596
2018-02-23T07:24:27.741Z,604
2018-02-23T07:25:36.701Z,612
2018-02-23T07:26:46.447Z,620
2018-02-23T07:27:55.402Z,628
2018-02-23T07:29:04.339Z,628
2018-02-23T07:30:13.573Z,636
2018-02-23T07:31:22.252Z,636
2018-02-23T07:32:31.459Z,640
2018-02-23T07:33:40.155Z,636
2018-02-23T07:34:48.946Z,624
2018-02-23T07:35:57.638Z,620
2018-02-23T07:37:06.853Z,620
2018-02-23T07:38:15.814Z,632
2018-02-23T07:39:25.277Z,640
2018-02-23T07:40:34.221Z,648
2018-02-23T07:41:43.439Z,656
2018-02-23T07:42:52.405Z,660
2018-02-23T07:44:01.411Z,668
2018-02-23T07:45:10.400Z,672
2018-02-23T07:46:19.896Z,680
2018-02-23T07:47:29.408Z,680
2018-02-23T07:48:38.365Z,688
2018-02-23T07:49:47.076Z,692
2018-02-23T07:50:56.076Z,692
2018-02-23T07:52:05.064Z,704
2018-02-23T07:53:14.020Z,704
2018-02-23T07:54:22.992Z,708
2018-02-23T07:55:31.984Z,716
2018-02-23T07:56:41.490Z,716
2018-02-23T07:57:50.456Z,720
2018-02-23T07:58:59.426Z,720
2018-02-23T08:00:08.650Z,728
2018-02-23T08:01:18.254Z,728
2018-02-23T08:02:27.763Z,732
2018-02-23T08:03:36.724Z,736
2018-02-23T08:04:45.950Z,744
2018-02-23T08:05:55.474Z,748
2018-02-23T08:07:04.179Z,752
2018-02-23T08:08:13.130Z,756
2018-02-23T08:09:22.615Z,760
2018-02-23T08:10:31.851Z,768
2018-02-23T08:11:40.875Z,768
2018-02-23T08:12:49.718Z,780
2018-02-23T08:13:58.936Z,784
2018-02-23T08:15:08.156Z,788
2018-02-23T08:16:17.642Z,788
2018-02-23T08:17:26.603Z,796
2018-02-23T08:18:35.670Z,800
2018-02-23T08:19:44.749Z,808
2018-02-23T08:20:53.692Z,804
2018-02-23T08:22:02.648Z,812
2018-02-23T08:23:12.367Z,820
2018-02-23T08:24:22.841Z,828
2018-02-23T08:25:32.371Z,828
2018-02-23T08:26:41.711Z,840
2018-02-23T08:27:50.921Z,836
2018-02-23T08:29:00.490Z,844
2018-02-23T08:30:09.474Z,860
2018-02-23T08:31:18.972Z,868
2018-02-23T08:32:27.741Z,872
2018-02-23T08:33:36.678Z,872
2018-02-23T08:34:45.625Z,876
2018-02-23T08:35:54.928Z,876
2018-02-23T08:37:03.879Z,872
2018-02-23T08:38:12.872Z,872
2018-02-23T08:39:21.553Z,880
2018-02-23T08:40:30.543Z,876
2018-02-23T08:41:40.091Z,872
2018-02-23T08:42:49.060Z,872
2018-02-23T08:43:57.817Z,864
2018-02-23T08:45:06.830Z,864
2018-02-23T08:46:16.526Z,860
2018-02-23T08:47:25.497Z,860
2018-02-23T08:48:34.457Z,856
2018-02-23T08:49:43.681Z,848
2018-02-23T08:50:52.359Z,852
2018-02-23T08:52:01.362Z,844
2018-02-23T08:53:10.038Z,844
2018-02-23T08:54:18.998Z,844
2018-02-23T08:55:28.240Z,844
2018-02-23T08:56:37.209Z,844
2018-02-23T08:57:45.956Z,840
2018-02-23T08:58:54.905Z,844
2018-02-23T09:00:04.360Z,840
2018-02-23T09:01:13.314Z,840
2018-02-23T09:02:22.540Z,844
2018-02-23T09:03:31.742Z,844
2018-02-23T09:04:40.725Z,840
2018-02-23T09:05:49.991Z,844
2018-02-23T09:06:58.952Z,844
2018-02-23T09:08:08.438Z,844
2018-02-23T09:09:17.924Z,840
2018-02-23T09:10:27.148Z,848
2018-02-23T09:11:36.113Z,848
2018-02-23T09:12:45.203Z,852
2018-02-23T09:13:53.919Z,844
2018-02-23T09:15:03.147Z,848
2018-02-23T09:16:12.133Z,844
2018-02-23T09:17:20.911Z,840
2018-02-23T09:18:30.165Z,848
2018-02-23T09:19:39.469Z,844
2018-02-23T09:20:48.432Z,844
2018-02-23T09:21:57.683Z,840
2018-02-23T09:23:06.925Z,844
2018-02-23T09:24:16.283Z,840
2018-02-23T09:25:25.271Z,840
2018-02-23T09:26:34.617Z,844
2018-02-23T09:27:43.394Z,844
2018-02-23T09:28:52.343Z,848
2018-02-23T09:30:01.573Z,852
2018-02-23T09:31:10.641Z,848
2018-02-23T09:32:19.348Z,852
2018-02-23T09:33:28.631Z,860
2018-02-23T09:34:38.125Z,856
2018-02-23T09:35:47.333Z,852
2018-02-23T09:36:56.018Z,848
2018-02-23T09:38:04.990Z,852
2018-02-23T09:39:13.998Z,848
2018-02-23T09:40:22.969Z,848
2018-02-23T09:41:32.467Z,848
2018-02-23T09:42:41.721Z,844
2018-02-23T09:43:50.926Z,844
2018-02-23T09:45:00.435Z,844
2018-02-23T09:46:09.399Z,844
2018-02-23T09:47:18.990Z,840
2018-02-23T09:48:27.962Z,840
2018-02-23T09:49:36.924Z,844
2018-02-23T09:50:45.777Z,840
2018-02-23T09:51:55.285Z,844
2018-02-23T09:53:04.516Z,840
2018-02-23T09:54:13.457Z,840
2018-02-23T09:55:22.665Z,840
2018-02-23T09:56:32.118Z,844
2018-02-23T09:57:41.082Z,836
2018-02-23T09:58:50.627Z,840
2018-02-23T10:00:00.587Z,840
2018-02-23T10:01:09.563Z,836
2018-02-23T10:02:18.757Z,840
2018-02-23T10:03:28.010Z,836
2018-02-23T10:04:36.702Z,836
2018-02-23T10:05:45.669Z,836
2018-02-23T10:06:54.361Z,836
2018-02-23T10:08:03.587Z,836
2018-02-23T10:09:12.279Z,836
2018-02-23T10:10:21.250Z,832
2018-02-23T10:11:30.726Z,832
2018-02-23T10:12:39.437Z,836
2018-02-23T10:13:48.402Z,828
2018-02-23T10:14:57.110Z,828
2018-02-23T10:16:06.683Z,824
2018-02-23T10:17:15.851Z,828
2018-02-23T10:18:25.343Z,832
2018-02-23T10:19:34.148Z,828
2018-02-23T10:20:43.211Z,832
2018-02-23T10:21:53.180Z,828
2018-02-23T10:23:02.206Z,828
2018-02-23T10:24:11.216Z,828
2018-02-23T10:25:20.287Z,832
2018-02-23T10:26:30.698Z,828
2018-02-23T10:27:41.369Z,828
2018-02-23T10:28:50.380Z,832
2018-02-23T10:29:59.352Z,828
2018-02-23T10:31:08.597Z,824
2018-02-23T10:32:17.812Z,820
2018-02-23T10:33:26.724Z,820
2018-02-23T10:34:36.263Z,816
2018-02-23T10:35:45.479Z,816
2018-02-23T10:36:54.451Z,824
2018-02-23T10:38:04.040Z,824
2018-02-23T10:39:13.602Z,816
2018-02-23T10:40:22.819Z,820
2018-02-23T10:41:31.512Z,824
2018-02-23T10:42:40.814Z,820
2018-02-23T10:43:49.769Z,824
2018-02-23T10:44:59.043Z,824
2018-02-23T10:46:08.484Z,824
2018-02-23T10:47:17.760Z,820
2018-02-23T10:48:26.728Z,820
2018-02-23T10:49:36.199Z,824
2018-02-23T10:50:45.403Z,820
2018-02-23T10:51:54.355Z,812
2018-02-23T10:53:03.303Z,812
2018-02-23T10:54:12.282Z,812
2018-02-23T10:55:21.003Z,812
2018-02-23T10:56:29.977Z,812
2018-02-23T10:57:39.208Z,808
2018-02-23T10:58:47.885Z,808
2018-02-23T10:59:57.140Z,804
2018-02-23T11:01:06.620Z,804
2018-02-23T11:02:15.561Z,800
2018-02-23T11:03:24.527Z,800
2018-02-23T11:04:33.502Z,804
2018-02-23T11:05:42.449Z,800
2018-02-23T11:06:51.671Z,800
2018-02-23T11:08:00.937Z,796
2018-02-23T11:09:10.141Z,788
2018-02-23T11:10:19.101Z,784
2018-02-23T11:11:28.056Z,780
2018-02-23T11:12:37.917Z,780
2018-02-23T11:13:47.402Z,784
2018-02-23T11:14:56.683Z,780
2018-02-23T11:16:05.642Z,780
2018-02-23T11:17:14.847Z,780
2018-02-23T11:18:24.323Z,772
2018-02-23T11:19:33.818Z,776
2018-02-23T11:20:43.302Z,772
2018-02-23T11:21:52.514Z,776
2018-02-23T11:23:01.211Z,776
2018-02-23T11:24:10.431Z,776
2018-02-23T11:25:19.392Z,776
2018-02-23T11:26:28.336Z,776
2018-02-23T11:27:37.543Z,772
2018-02-23T11:28:46.507Z,768
2018-02-23T11:29:55.469Z,764
2018-02-23T11:31:04.674Z,764
2018-02-23T11:32:13.367Z,764
2018-02-23T11:33:22.050Z,760
2018-02-23T11:34:30.760Z,760
2018-02-23T11:35:39.970Z,760
2018-02-23T11:36:49.233Z,760
2018-02-23T11:37:58.173Z,756
2018-02-23T11:39:07.135Z,756
2018-02-23T11:40:16.082Z,752
2018-02-23T11:41:24.822Z,752
2018-02-23T11:42:34.049Z,748
2018-02-23T11:43:43.268Z,748
2018-02-23T11:44:53.083Z,748
2018-02-23T11:46:02.548Z,748
2018-02-23T11:47:11.526Z,748
2018-02-23T11:48:20.773Z,772
2018-02-23T11:49:29.735Z,776
2018-02-23T11:50:38.683Z,772
2018-02-23T11:51:47.896Z,772
2018-02-23T11:52:57.388Z,764
2018-02-23T11:54:07.138Z,768
2018-02-23T11:55:16.084Z,764
2018-02-23T11:56:24.783Z,764
2018-02-23T11:57:33.467Z,760
2018-02-23T11:58:42.412Z,764
2018-02-23T11:59:51.159Z,760
2018-02-23T12:01:00.944Z,756
2018-02-23T12:02:09.919Z,756
2018-02-23T12:03:18.856Z,756
2018-02-23T12:04:28.346Z,756
2018-02-23T12:05:39.036Z,752
2018-02-23T12:06:48.017Z,756
2018-02-23T12:07:57.242Z,756
2018-02-23T12:09:06.986Z,756
2018-02-23T12:10:15.932Z,760
2018-02-23T12:11:25.161Z,756
2018-02-23T12:12:34.512Z,756
2018-02-23T12:13:44.031Z,752
2018-02-23T12:14:52.826Z,752
2018-02-23T12:16:01.774Z,756
2018-02-23T12:17:10.755Z,752
2018-02-23T12:18:20.219Z,756
2018-02-23T12:19:29.466Z,752
2018-02-23T12:20:38.407Z,756
2018-02-23T12:21:47.118Z,756
2018-02-23T12:22:56.614Z,756
2018-02-23T12:24:05.815Z,756
2018-02-23T12:25:15.020Z,752
2018-02-23T12:26:24.232Z,752
2018-02-23T12:27:33.438Z,752
2018-02-23T12:28:42.928Z,752
2018-02-23T12:29:51.902Z,752
2018-02-23T12:31:00.639Z,752
2018-02-23T12:32:09.598Z,752
2018-02-23T12:33:19.139Z,748
2018-02-23T12:34:28.095Z,752
2018-02-23T12:35:37.148Z,748
2018-02-23T12:36:46.626Z,748
2018-02-23T12:37:55.593Z,752
2018-02-23T12:39:04.848Z,752
2018-02-23T12:40:13.821Z,752
